Anafi, Greece
Current Conditions -  °F | °C
As of 8:20 PM on Saturday 25 Oct 2014 (Local Time) from LGSR Reporting Station
Broken Clouds Broken Clouds  
Wind Chill: 68°   Ceiling: 2500
Heat Index: 68°   Visibility: 6mi
Dew Point: 55°   Wind: 14mph
Humidity: 64%   Direction: 250°WSW
Pressure: 29.88"   Gusts: NA
Location:  36.35°N, 25.77°E
Report Text: LGSR 251720Z 25012KT 9999 BKN025 SCT080 20/13 Q1012
Loading
Personal Weather Stations






























Interactive Weather Map
Tropical Storm Tracking
New forecast layout! Learn more

10-Day Weather Forecast

Advertisements
Track Severe Weather on mobile